Report METAR

 

LIMJ -
Dati ricevuti: 16/04/2021 05:20
Pioviggine, Nuvoloso
Pioviggine, Nuvoloso
 Vento da NNE
Vento: NNE 20 km/h
Temperatura: 9°C
Temperatura Vento: 6°C
P.to Rugiada: 4°C
Umidità: 71%
Barometro: 1018 hPa
Summary: Pioviggine
Nuvole: Molto nuvoloso
Visibility: 10 km
Cloud details: Parz. nuvoloso 1372 m
Molto nuvoloso 1829 m
2021/04/16 03:20 LIMJ 160320Z 03011KT 9999 -RA SCT045 BKN060 09/04 Q1018